Date,TemperatureHighF,TemperatureAvgF,TemperatureLowF,DewpointHighF,DewpointAvgF,DewpointLowF,HumidityHigh,HumidityAvg,HumidityLow,PressureMaxIn,PressureMinIn,WindSpeedMaxMPH,WindSpeedAvgMPH,GustSpeedMaxMPH,PrecipitationSumIn
2013-1-1,27,22,15,-100,-100,-100,0,0,100,0.00,40.00,7,-38,19,0.01
2013-1-2,42,32,24,-100,-100,-100,0,0,100,0.00,40.00,3,2,11,0.00
2013-1-3,42,37,33,-100,-100,-100,0,0,100,0.00,40.00,11,-223,18,0.00
2013-1-4,42,37,34,-100,-100,-100,0,0,100,0.00,40.00,8,-158,14,0.00
2013-1-5,38,34,30,-100,-100,-100,0,0,100,0.00,40.00,13,-124,26,0.01
2013-1-6,29,25,22,-100,-100,-100,0,0,100,0.00,40.00,5,-179,13,0.02
2013-1-7,41,31,23,-100,-100,-100,0,0,100,0.00,40.00,5,-171,14,0.00
2013-1-8,53,40,31,-100,-100,-100,0,0,100,0.00,40.00,8,-81,13,0.00
2013-1-9,45,35,17,-100,-100,-100,0,0,100,0.00,40.00,18,-32,42,0.01
2013-1-10,16,13,12,-100,-100,-100,0,0,100,0.00,40.00,11,-101,25,0.02
2013-1-11,15,12,8,-100,-100,-100,0,0,100,0.00,40.00,11,-94,19,0.01
2013-1-12,24,13,6,-100,-100,-100,0,0,100,0.00,40.00,4,-39,11,0.01
2013-1-13,21,12,5,-100,-100,-100,0,0,100,0.00,40.00,11,-86,19,0.01
2013-1-14,26,16,2,-100,-100,-100,0,0,100,0.00,40.00,8,-90,18,0.01
2013-1-15,39,32,24,-100,-100,-100,0,0,100,0.00,40.00,7,5,18,0.00
2013-1-16,43,35,30,-100,-100,-100,0,0,100,0.00,40.00,7,3,18,0.00
2013-1-17,54,38,31,-100,-100,-100,0,0,100,0.00,40.00,3,-89,7,0.00
2013-1-18,49,39,33,-100,-100,-100,0,0,100,0.00,40.00,3,-128,7,0.00
2013-1-19,45,36,32,-100,-100,-100,0,0,100,0.00,40.00,3,-137,8,0.00
2013-1-20,43,37,33,-100,-100,-100,0,0,100,0.00,40.00,4,2,12,0.00
2013-1-21,50,43,36,-100,-100,-100,0,0,100,0.00,40.00,6,-83,10,0.01
2013-1-22,50,44,38,-100,-100,-100,0,0,100,0.00,40.00,14,-41,25,0.03
2013-1-23,41,37,30,-100,-100,-100,0,0,100,0.00,40.00,17,-131,34,0.01
2013-1-24,39,36,34,-100,-100,-100,0,0,100,0.00,40.00,16,6,32,0.02
2013-1-25,38,36,36,-100,-100,-100,0,0,100,0.00,40.00,9,-81,22,0.02
2013-1-26,36,31,24,-100,-100,-100,0,0,100,0.00,40.00,17,-32,45,0.01
2013-1-27,26,19,13,-100,-100,-100,0,0,100,0.00,40.00,13,5,36,0.01
2013-1-28,26,21,14,-100,-100,-100,0,0,100,0.00,40.00,9,-82,22,0.01
2013-1-29,36,32,26,-100,-100,-100,0,0,100,0.00,40.00,16,-74,39,0.01
2013-1-30,45,36,29,-100,-100,-100,0,0,100,0.00,40.00,6,-109,15,0.01
2013-1-31,47,41,33,-100,-100,-100,0,0,100,0.00,40.00,13,-102,20,0.01